Paharova, Sweden

8:41 PM CEST on July 29, 2016 (GMT +0200)
Gallivare | | Change Station

Elev 1027 ft 67.13 °N, 20.81 °E | Updated 21 minutes ago

Clear
Clear
68 °F
Feels Like 68 °F
N
5
Wind Variable Wind from WSW

Today
High -- | Low -- °F
--% Chance of Precip.
Yesterday
High -- | Low -- °F
Precip. -- in
Pressure 29.71 in
Visibility 6.2 miles
Clouds
Dew Point 48 °F
Humidity 49%
Rainfall 0.00 in
Snow Depth Not available.
2:53 AM 10:17 PM
Waning Crescent, 20% visible
METAR ESNG 291820Z AUTO 24004KT 9999 NCD 20/09 Q1006
Pressure 29.71 in
Visibility 6.2 miles
Clouds
Dew Point 48 °F
Humidity 49%
Rainfall 0.00 in
Snow Depth Not available.
2:53 AM 10:17 PM
Waning Crescent, 20% visible
METAR ESNG 291820Z AUTO 24004KT 9999 NCD 20/09 Q1006

10-Day Weather Forecast

×

Almanac

Astronomy

Jul. 29, 2016 Rise Set
Actual Time
Civil Twilight
Nautical Twilight
Astronomical Twilight
Moon
Length of Visible Light
Length of Day
Tomorrow will be .
, % of the Moon is Illuminated

Today's Extremes

Country Highs Country Lows

Community

WunderPhotos

Upload Photos

1,928,393 photos uploaded!

WunderBlog® & News

Nearby

Air Quality

  Air Quality AQ Index Pollutant
Not available.

Snow Depth

Station Depth Elevation

Earthquake Activity

City Distance Mag. Time & Date
Minimum magnitude displayed is 2.5.

Coastal Water Temperatures

Place Temperature

Stations

Nearby Weather Stations

Station Location Temp. Windchill Dew Point Humidity Wind Precip. Elev Updated Type